REU weather

Reus Air Base
Reus, Catalonia, Spain

Public forecast

Using degrees Celsius for public forecast. Weather courtesy of forecast.io.

Current aviation weather report (METAR) for Reus Air Base

Retrieved 2020/01/23 07:30 UTC (0 seconds ago):

LERS 230730Z 16003KT 110V210 9000 -RA BKN030 BKN035 08/08 Q1020

Aviation forecast (TAF) for Reus Air Base

Retrieved 2020/01/23 09:31 UTC (0 seconds ago):

TAF LERS 230800Z 2309/2409 VRB04KT 9999 BKN030 TX15/2312Z TN03/2406Z TEMPO 2309/2310 RA PROB40 TEMPO 2320/2403 3000 BR BKN009